ADDS METAR Data INFO
IDs: Format: Raw Decoded Include TAF

Data at: 1956 UTC 25 Feb 2018

KDFW 251953Z 19012KT 10SM FEW120 FEW200 19/07 A2998 RMK AO2 SLP148 T01940072 $
KDFW 251853Z 16011KT 10SM BKN120 BKN200 18/07 A3002 RMK AO2 SLP162 T01780072 $
KDFW 251753Z 15007KT 10SM FEW130 SCT250 17/08 A3003 RMK AO2 SLP166 T01720078 10172 20050 58007 $
KDFW 251653Z 15008KT 10SM BKN130 BKN200 BKN250 15/08 A3007 RMK AO2 SLP179 T01500078 $
KDFW 251553Z COR 11005KT 10SM SCT140 BKN200 BKN250 13/08 A3005 RMK AO2 SLP172 VIRGA T01280078 $
KDFW 251453Z VRB03KT 10SM FEW080 SCT140 BKN250 11/07 A3005 RMK AO2 SLP175 VIRGA T01060067 51012 $
KDFW 251353Z 02005KT 10SM FEW080 BKN130 BKN250 08/06 A3004 RMK AO2 SLP171 VIRGA T00830061 $
KDFW 251253Z 00000KT 9SM FEW080 BKN130 BKN250 06/04 A3006 RMK AO2 PRESRR SLP179 VIRGA DSNT SE-SW ACC DSNT NW T00560039 $
KDFW 251153Z 00000KT 9SM FEW120 SCT250 06/03 A3002 RMK AO2 SLP163 70108 T00560033 10094 20056 53007 $
KDFW 251053Z 36003KT 9SM FEW250 06/04 A3001 RMK AO2 SLP159 T00560039 $
KDFW 250953Z 00000KT 10SM FEW250 06/04 A3000 RMK AO2 SLP157 T00610044 $
KDFW 250853Z 36007KT 10SM FEW250 07/06 A3000 RMK AO2 SLP155 T00720056 58001 $
KDFW 250753Z 06003KT 10SM FEW250 08/06 A3000 RMK AO2 SLP157 T00830061 $
KDFW 250653Z 01004KT 10SM FEW250 09/06 A3001 RMK AO2 SLP162 T00890061 $
KDFW 250553Z COR 35004KT 10SM SCT250 09/06 A3000 RMK AO2 SLP158 T00940061 10161 20089 401830083 51019 $
KDFW 250453Z 00000KT 10SM FEW250 BKN300 11/07 A2999 RMK AO2 SLP152 T01110067 $
KDFW 250353Z 00000KT 10SM FEW250 BKN300 13/07 A2996 RMK AO2 SLP143 T01330072 $
KDFW 250253Z 11004KT 10SM BKN250 BKN300 12/08 A2994 RMK AO2 SLP136 T01220078 53018 $
KDFW 250153Z 04003KT 10SM SCT250 BKN300 11/07 A2992 RMK AO2 SLP129 T01110072 $
KDFW 250053Z 35004KT 10SM FEW080 SCT250 BKN300 14/07 A2990 RMK AO2 SLP124 T01390072 $
KDFW 242353Z 33007KT 10SM FEW040 FEW080 SCT230 BKN300 16/07 A2989 RMK AO2 SLP119 60000 T01610072 10183 20100 53015 $
KDFW 242253Z 32012KT 10SM FEW040 SCT230 BKN300 18/08 A2987 RMK AO2 SLP109 T01780078 $
KDFW 242153Z 30011KT 10SM FEW042 BKN230 BKN300 17/08 A2985 RMK AO2 SLP104 T01720083 $
KDFW 242053Z 30013G18KT 10SM FEW024 FEW042 SCT220 BKN300 16/09 A2985 RMK AO2 SLP104 60000 T01610094 58005 $
KDFW 241953Z 30013KT 10SM FEW024 SCT042 SCT220 BKN300 15/11 A2985 RMK AO2 SLP104 T01500106 $
KDFW 241920Z 29011KT 10SM FEW012 SCT024 SCT043 BKN220 13/10 A2986 RMK AO2 T01330100 $
KDFW 241853Z 30011KT 10SM SCT012 BKN024 BKN250 12/09 A2987 RMK AO2 RAE1756 SLP112 P0000 T01220094 $
KDFW 241843Z 30013KT 10SM SCT012 BKN024 12/09 A2986 RMK AO2 RAE1756 P0000 T01170094 $
KDFW 241805Z 30010KT 10SM FEW007 BKN012 BKN019 11/09 A2987 RMK AO2 LTG DSNT NE RAE1756 TS MOVD NE P0000 T01060089 $
KDFW 241756Z 30010KT 10SM VCTS BKN012 BKN019 OVC023 10/08 A2986 RMK AO2 LTG DSNT NE-SE RAE56 P0000 T01000083 $
KDFW 241753Z 30010KT 10SM -RA SCT012 BKN019 OVC027 10/08 A2986 RMK AO2 PK WND 30027/1657 LTG DSNT NE-SE SLP110 OCNL LTGIC DSNT N-E CB DSNT N-E MOV NE P0035 60108 T01000083 10178 20089 51019 $
KDFW 241747Z 29010KT 10SM -RA FEW012 BKN019 OVC027 10/08 A2986 RMK AO2 PK WND 30027/1657 LTG DSNT NE AND SE OCNL LTGIC DSNT N-E CB DSNT N-E MOV NE P0035 $
KDFW 241709Z COR 30019G24KT 1 1/4SM R17C/4500VP6000FT +TSRA BR SCT005 BKN018 OVC024CB 11/09 A2984 RMK AO2 PK WND 30027/1657 SFC VIS 1 1/2 LTG DSNT ALQDS TSB03 OCNL LTGIC SW-NW-N TS SW-NW-N MOV NE P0002 T01060089 $
KDFW 241704Z COR 29015G27KT 3SM -TSRA BR FEW005 BKN018 OVC024CB 11/09 A2983 RMK AO2 PK WND 30027/1657 SFC VIS 6 LTG DSNT ALQDS TSB03 OCNL LTGIC SW-NW-N TS SW-NW-N MOV NE P0001 T01060089 $
KDFW 241653Z COR 30017G27KT 1SM R17C/P6000FT -RA BR SCT005 SCT015 OVC024 11/09 A2983 RMK AO2 PK WND 28030/1632 WSHFT 1621 SFC VIS 4 LTG DSNT ALQDS RAB03 TSB24E53 SLP098 FROPA TS MOVD NE P0018 T01110094 $
KDFW 241641Z COR 30021G30KT 1SM R17C/3500VP6000FT +TSRA BR SCT003 BKN009 OVC015CB 13/12 A2982 RMK AO2 PK WND 28030/1632 WSHFT 1621 FROPA LTG DSNT ALQDS RAB03 TSB24 OCNL LTGIC NW-NE TS NW-NE MOV NE P0014 T01280117 $
KDFW 241625Z 28014KT 1SM R17C/4500VP6000FT TSRA BR FEW003 BKN009 OVC015CB 16/15 A2980 RMK AO2 SFC VIS 1 1/2 LTG DSNT ALQDS RAB03 TSB24 OCNL LTGIC SW-NW-N TS SW-NW-N MOV NE P0005 T01610150 $
KDFW 241610Z 22009KT 1SM R17C/P6000FT -RA BR FEW003 OVC009 16/15 A2979 RMK AO2 SFC VIS 3 LTG DSNT S-W RAB03 P0000 T01610150 $
KDFW 241602Z 22008KT 1SM R17C/P6000FT VCTS BR FEW003 OVC009 16/15 A2980 RMK AO2 SFC VIS 5 LTG DSNT SW-NW T01560150 $
KDFW 241553Z 23009KT 1/4SM R17C/P6000FT BR SCT003 OVC008 16/14 A2981 RMK AO2 SFC VIS 5 LTG DSNT SW-NW SLP090 T01560144 $
KDFW 241453Z 20007KT 1/4SM R17C/P6000FT BR OVC002 14/13 A2979 RMK AO2 SFC VIS 4 RAE12 PRESRR SLP084 P0001 60055 T01440133 55027 $
KDFW 241441Z 16010KT 1/4SM R17C/P6000FT BR OVC003 14/13 A2977 RMK AO2 SFC VIS 6 RAE12 CB MOVD NE P0001 T01440133 $
KDFW 241422Z 15011KT 9SM BKN003 BKN007 OVC110 14/13 A2978 RMK AO2 RAE12 CB DSNT N-E MOV NE P0001 T01390133 $
KDFW 241403Z 14013G21KT 9SM -RA BKN007 BKN025 BKN110 14/13 A2979 RMK AO2 LTG DSNT N-E OCNL LTGIC DSNT NE CB DSNT NW-NE MOV NE P0001 T01440133 $
KDFW 241353Z 13018KT 8SM -RA BKN014 BKN090 OVC110 15/14 A2978 RMK AO2 LTG DSNT ALQDS TSE38 PRESFR SLP081 OCNL LTGICCG DSNT NE-E CB DSNT NW-NE-E MOV NE P0027 T01500139 $
KDFW 241338Z 16019G25KT 8SM -RA SCT002 BKN009 OVC014 17/16 A2983 RMK AO2 LTG DSNT ALQDS TSE38 TS MOVD NE P0026 T01720161 $
KDFW 241320Z 14010KT 5SM -TSRA BR SCT002 BKN021CB OVC045 12/12 A2980 RMK AO2 LTG DSNT NE-S FRQ LTGCGIC NE TS NE MOV NE P0025 T01220117 $
KDFW 241313Z 14009KT 1 1/2SM R17C/4500VP6000FT +TSRA BR SCT004 SCT015CB OVC024 10/09 A2980 RMK AO2 LTG DSNT ALQDS FRQ LTGCGIC OHD-NE-SE TS OHD-NE-SE MOV NE P0024 T01000094 $
KDFW 241307Z 11012KT 3/4SM R17C/4500VP6000FT +TSRA BR SCT004CB BKN020 OVC045 10/09 A2978 RMK AO2 LTG DSNT ALQDS PRESFR FRQ LTGCGIC OHD-E-S TS OHD-E-S MOV NE P0014 T01000094 $
KDFW 241253Z 11010KT 1 1/2SM +TSRA BR SCT004CB BKN015 OVC040 10/09 A2981 RMK AO2 LTG DSNT S-W TSE04E23B27 SLP093 FRQ LTGCGIC OHD-SE-SW TS OHD-SE-SW MOV NE P0027 T01000089 $
KDFW 241239Z 11008KT 1 1/4SM R17C/6000VP6000FT +TSRA BR BKN004CB OVC008 10/09 A2984 RMK AO2 LTG DSNT S-W TSE04E23B27 OCNL LTGCGIC OHD-S-W TS OHD-S-W MOV NE P0005 T01000089 $
KDFW 241227Z 06003KT 2 1/2SM TSRA BR OVC004CB 09/09 A2985 RMK AO2 LTG DSNT ALQDS TSE04E23B27 OCNL LTGCGIC SW-W TS SW-W MOV NE P0004 T00940089 $
KDFW 241219Z 10003KT 2SM -RA BR OVC004 09/09 A2985 RMK AO2 LTG DSNT NE AND SW AND W TSE04 OCNL LTGICCG DSNT SW CB DSNT SW MOV NE P0003 T00940089 $
KDFW 241205Z 09007KT 1 1/2SM -RA BR BKN004 OVC009 09/08 A2984 RMK AO2 LTG DSNT SW TSE04 PRESFR TS DSIPTD P0002 T00940083 $
KDFW 241153Z 09005KT 1 1/2SM TSRA BR BKN004 OVC010CB 09/08 A2987 RMK AO2 LTG DSNT NE TSE38B40 PRESFR SLP112 OCNL LTGIC OHD-NE-SE TS OHD-NE-SE MOV NE P0009 60009 70011 T00940083 10094 20083 55025 $
KDFW 241140Z 06003KT 1 1/4SM R17C/6000VP6000FT -TSRA BR BKN004 OVC010CB 09/08 A2989 RMK AO2 LTG DSNT NW TSE38B40 OCNL LTGICCG SE-OHD-NW TS SE-OHD-NW MOV NE P0008 T00940083 $
KDFW 241123Z 31004KT 1SM R17C/4500V5500FT -RA BR OVC003 09/08 A2991 RMK AO2 LTG DSNT W AND NW P0001 T00890083 $
KDFW 241053Z 07005KT 1/2SM R17C/3000V3500FT -RA FG VV002 09/08 A2986 RMK AO2 LTG DSNT SW AND W DZE40RAB40 SLP110 P0000 T00890083 $
KDFW 240953Z 11003KT 1/2SM R17C/3500VP6000FT -DZ FG VV003 09/08 A2991 RMK AO2 SLP128 P0000 T00890078 $
KDFW 240919Z 00000KT 3/4SM R17C/P6000FT -DZ BR VV002 09/08 A2994 RMK AO2 P0000 T00890078 $
KDFW 240853Z 00000KT 1 1/2SM -DZ BR OVC003 09/08 A2994 RMK AO2 SLP137 P0000 60000 T00890078 58017 $